Time;durP1;ratioP1;P1;durP2;ratioP2;P2;SDS_P1;SDS_P2;PMS_P1;PMS_P2;Temp;Humidity;BMP_temperature;BMP_pressure;BME280_temperature;BME280_humidity;BME280_pressure;Samples;Min_cycle;Max_cycle;Signal;HPM_P1;HPM_P2
2023/07/05 00:01:42;;;;;;;17.77;10.07;;;;;;;18.98;42.34;97567.44;10516013;28;20075;-75
2023/07/05 00:07:03;;;;;;;16.55;10.10;;;;;;;18.88;42.70;97572.75;10515220;28;20390;-74
2023/07/05 00:12:23;;;;;;;16.02;10.90;;;;;;;18.82;42.69;97564.09;10544177;28;20187;-75
2023/07/05 00:17:44;;;;;;;15.63;11.63;;;;;;;18.86;42.85;97564.94;10528637;28;20124;-74
2023/07/05 00:23:05;;;;;;;20.02;11.38;;;;;;;18.82;42.55;97553.50;10514698;28;20044;-75
2023/07/05 00:28:25;;;;;;;17.10;10.73;;;;;;;18.76;42.91;97541.28;10514165;28;20146;-73
2023/07/05 00:33:47;;;;;;;14.43;10.07;;;;;;;18.77;43.25;97540.63;10498897;28;20071;-74
2023/07/05 00:39:08;;;;;;;21.50;11.40;;;;;;;18.76;43.00;97535.63;10513654;28;20115;-75
2023/07/05 00:44:29;;;;;;;16.20;9.70;;;;;;;18.74;42.98;97535.56;10513516;28;20036;-74
2023/07/05 00:49:50;;;;;;;20.90;11.43;;;;;;;18.73;42.97;97528.47;10513379;28;20162;-75
2023/07/05 00:55:10;;;;;;;22.08;10.90;;;;;;;18.70;43.29;97529.75;10527233;28;20454;-74
2023/07/05 01:00:31;;;;;;;16.63;10.88;;;;;;;18.64;43.16;97521.06;10512985;28;20040;-74
2023/07/05 01:05:54;;;;;;;18.30;11.02;;;;;;;18.57;43.32;97512.38;10512563;28;20127;-75
2023/07/05 01:11:14;;;;;;;;;;;;;;;18.50;44.07;97518.50;10499496;28;20068;-74
2023/07/05 01:16:51;;;;;;;18.23;10.93;;;;;;;18.43;43.40;97511.94;10526346;28;19967;-73
2023/07/05 01:22:19;;;;;;;21.42;11.73;;;;;;;18.31;43.50;97511.50;10514022;28;20044;-73
2023/07/05 01:28:02;;;;;;;19.40;12.30;;;;;;;18.15;43.99;97508.16;10498696;28;20040;-74
2023/07/05 01:33:33;;;;;;;19.95;11.73;;;;;;;18.06;44.30;97497.97;10526003;28;20110;-74
2023/07/05 01:38:54;;;;;;;19.20;11.60;;;;;;;18.01;44.45;97492.16;10497784;28;20127;-73
2023/07/05 01:44:15;;;;;;;20.60;11.70;;;;;;;17.95;44.81;97489.16;10525573;28;20394;-73
2023/07/05 01:49:58;;;;;;;19.65;12.10;;;;;;;17.91;44.84;97500.28;10510942;28;20170;-73
2023/07/05 01:55:40;;;;;;;19.30;12.57;;;;;;;17.86;44.93;97492.34;10540343;28;20169;-73
2023/07/05 02:01:00;;;;;;;19.98;12.27;;;;;;;17.81;45.15;97494.28;10524751;28;20497;-73
2023/07/05 02:06:21;;;;;;;20.35;13.30;;;;;;;17.66;45.38;97490.22;10496537;28;20111;-74
2023/07/05 02:11:42;;;;;;;20.77;13.10;;;;;;;17.63;45.77;97488.69;10510837;28;20116;-74
2023/07/05 02:17:03;;;;;;;21.33;12.70;;;;;;;17.61;46.40;97490.72;10539664;28;20144;-74
2023/07/05 02:22:24;;;;;;;20.35;12.63;;;;;;;17.54;46.50;97478.47;10510786;28;20213;-74
2023/07/05 02:27:46;;;;;;;21.17;12.82;;;;;;;17.49;47.20;97471.25;10524605;28;20141;-73
2023/07/05 02:33:07;;;;;;;20.42;12.15;;;;;;;17.45;47.68;97471.81;10510381;28;20465;-74
2023/07/05 02:38:28;;;;;;;20.15;13.20;;;;;;;17.41;47.87;97482.25;10524344;28;20095;-73
2023/07/05 02:43:50;;;;;;;18.85;12.52;;;;;;;17.29;47.97;97474.06;10510184;28;20040;-73
2023/07/05 02:49:12;;;;;;;20.52;12.75;;;;;;;17.32;48.37;97475.56;10510178;28;20150;-73
2023/07/05 02:54:33;;;;;;;21.45;12.40;;;;;;;17.33;48.23;97465.72;10509877;28;20493;-73
2023/07/05 02:59:54;;;;;;;18.90;12.38;;;;;;;17.33;48.25;97459.38;10528841;28;20450;-73
2023/07/05 03:05:16;;;;;;;18.67;12.57;;;;;;;17.25;48.35;97459.78;10531793;28;20461;-74
2023/07/05 03:10:38;;;;;;;20.75;12.60;;;;;;;17.30;48.63;97461.41;10531257;28;20067;-73
2023/07/05 03:15:59;;;;;;;18.85;11.55;;;;;;;17.30;48.78;97452.94;10535717;28;20064;-74
2023/07/05 03:21:19;;;;;;;19.38;11.77;;;;;;;17.36;49.03;97463.69;10516950;28;20071;-74
2023/07/05 03:26:40;;;;;;;20.98;12.52;;;;;;;17.36;49.34;97461.59;10516847;28;20067;-73
2023/07/05 03:32:01;;;;;;;24.08;13.27;;;;;;;17.41;49.69;97463.22;10545659;28;20067;-74
2023/07/05 03:37:23;;;;;;;21.50;13.60;;;;;;;17.42;49.98;97459.00;10502478;28;20079;-74
2023/07/05 03:42:44;;;;;;;21.42;12.98;;;;;;;17.40;50.24;97458.22;10530484;28;20064;-74
2023/07/05 03:48:04;;;;;;;21.08;12.77;;;;;;;17.42;50.72;97458.28;10529822;28;20545;-74
2023/07/05 03:53:25;;;;;;;21.40;12.63;;;;;;;17.50;50.81;97443.75;10529945;28;20064;-74
2023/07/05 03:58:46;;;;;;;20.48;12.27;;;;;;;17.70;50.67;97436.03;10501376;28;20241;-73
2023/07/05 04:04:08;;;;;;;17.95;11.27;;;;;;;17.84;50.40;97436.50;10515647;28;20133;-73
2023/07/05 04:09:29;;;;;;;20.47;12.23;;;;;;;17.91;50.45;97429.69;10515091;28;20067;-74
2023/07/05 04:14:50;;;;;;;18.50;11.38;;;;;;;17.88;50.15;97425.38;10528983;28;20083;-73
2023/07/05 04:20:11;;;;;;;17.67;11.27;;;;;;;17.97;50.66;97429.91;10528856;28;20076;-74
2023/07/05 04:25:31;;;;;;;19.50;12.27;;;;;;;17.99;51.18;97432.78;10500564;28;20120;-73
2023/07/05 04:30:52;;;;;;;18.52;10.75;;;;;;;18.07;51.13;97434.44;10528049;28;20115;-74
2023/07/05 04:36:14;;;;;;;17.05;10.07;;;;;;;18.27;51.09;97430.19;10514225;28;20040;-74
2023/07/05 04:41:47;;;;;;;18.93;11.67;;;;;;;18.50;50.82;97434.44;10515574;28;20481;-74
2023/07/05 04:47:07;;;;;;;18.90;11.23;;;;;;;18.78;50.32;97431.78;10513369;28;20324;-74
2023/07/05 04:52:28;;;;;;;15.07;10.30;;;;;;;19.06;48.79;97434.03;10513433;28;20089;-73
2023/07/05 04:57:49;;;;;;;16.33;10.13;;;;;;;19.28;49.15;97431.13;10542440;28;20113;-74
2023/07/05 05:03:10;;;;;;;17.10;11.13;;;;;;;19.59;48.89;97433.44;10526641;28;20075;-74
2023/07/05 05:08:30;;;;;;;16.92;10.32;;;;;;;19.78;48.52;97445.25;10512614;28;20067;-73
2023/07/05 05:13:51;;;;;;;16.33;10.82;;;;;;;19.96;47.67;97443.63;10526584;28;20116;-74
2023/07/05 05:19:12;;;;;;;15.52;10.07;;;;;;;20.19;47.53;97436.41;10541587;28;20072;-74
2023/07/05 05:24:33;;;;;;;15.80;10.30;;;;;;;20.58;46.64;97437.38;10541015;28;20063;-74
2023/07/05 05:29:54;;;;;;;16.70;9.75;;;;;;;20.79;46.34;97444.94;10512031;28;20074;-74
2023/07/05 05:35:15;;;;;;;14.80;9.77;;;;;;;21.09;45.92;97444.91;10525940;28;20071;-74
2023/07/05 05:40:36;;;;;;;13.90;9.15;;;;;;;21.39;45.49;97436.31;10511709;28;20071;-74
2023/07/05 05:45:56;;;;;;;16.88;9.27;;;;;;;21.90;44.91;97437.28;10525609;28;20063;-73
2023/07/05 05:51:17;;;;;;;15.52;9.77;;;;;;;22.56;43.60;97437.00;10525214;28;20474;-73
2023/07/05 05:56:38;;;;;;;12.40;7.38;;;;;;;22.97;42.90;97443.34;10511136;28;20564;-74
2023/07/05 06:01:58;;;;;;;14.15;7.88;;;;;;;23.26;41.43;97435.16;10510783;28;20055;-73
2023/07/05 06:07:19;;;;;;;11.88;6.15;;;;;;;23.73;40.50;97435.72;10497001;28;20067;-74
2023/07/05 06:12:42;;;;;;;7.30;5.22;;;;;;;23.95;40.19;97441.66;10510779;28;20393;-73
2023/07/05 06:18:03;;;;;;;8.50;5.30;;;;;;;24.02;39.54;97434.59;10510944;28;20044;-73
2023/07/05 06:23:24;;;;;;;8.55;5.50;;;;;;;24.25;39.33;97444.81;10510437;28;20482;-73
2023/07/05 06:28:45;;;;;;;7.10;4.80;;;;;;;24.80;38.65;97425.28;10510264;28;20044;-74
2023/07/05 06:34:06;;;;;;;7.63;4.47;;;;;;;24.92;38.79;97429.63;10502318;28;20064;-74
2023/07/05 06:39:27;;;;;;;7.88;4.40;;;;;;;25.02;38.22;97435.44;10518478;28;20055;-74
2023/07/05 06:44:47;;;;;;;6.35;4.00;;;;;;;25.21;38.76;97425.53;10518528;28;20036;-74
2023/07/05 06:50:09;;;;;;;5.63;4.03;;;;;;;25.63;38.12;97430.69;10518343;28;20036;-74
2023/07/05 06:55:29;;;;;;;6.97;3.95;;;;;;;25.55;37.50;97407.78;10531905;28;20044;-74
2023/07/05 07:00:53;;;;;;;6.13;3.83;;;;;;;25.37;37.87;97404.88;10518676;28;20048;-74
2023/07/05 07:06:15;;;;;;;5.70;2.80;;;;;;;25.85;37.23;97412.19;10531605;28;20040;-74
2023/07/05 07:11:36;;;;;;;4.93;3.28;;;;;;;26.42;36.80;97407.25;10517258;28;20389;-73
2023/07/05 07:16:56;;;;;;;4.88;2.95;;;;;;;27.33;35.28;97408.53;10502922;28;20504;-75
2023/07/05 07:22:17;;;;;;;8.98;3.63;;;;;;;28.10;34.05;97428.19;10503015;28;20040;-74
2023/07/05 07:27:38;;;;;;;5.85;3.00;;;;;;;28.40;33.17;97423.69;10531110;28;20118;-74
2023/07/05 07:32:59;;;;;;;3.95;3.00;;;;;;;28.06;33.32;97422.47;10516329;28;20040;-74
2023/07/05 07:38:20;;;;;;;6.68;3.00;;;;;;;28.10;33.89;97416.72;10530557;28;20481;-74
2023/07/05 07:43:41;;;;;;;3.70;2.50;;;;;;;29.02;32.55;97431.00;10529368;28;20047;-74
2023/07/05 07:49:02;;;;;;;3.65;2.40;;;;;;;28.43;32.88;97422.22;10516085;28;20043;-74
2023/07/05 07:54:30;;;;;;;4.03;2.63;;;;;;;28.06;33.30;97411.00;10529686;28;20385;-74
2023/07/05 07:59:51;;;;;;;7.60;2.60;;;;;;;28.17;34.02;97420.94;10503623;28;20040;-74
2023/07/05 08:05:15;;;;;;;3.72;2.10;;;;;;;29.23;32.60;97413.53;10501336;28;20056;-74
2023/07/05 08:10:37;;;;;;;3.65;2.50;;;;;;;29.10;31.89;97415.16;10501589;28;20055;-73
2023/07/05 08:15:58;;;;;;;4.88;2.40;;;;;;;28.43;32.70;97399.97;10528966;28;20040;-73
2023/07/05 08:21:19;;;;;;;4.90;2.30;;;;;;;28.05;33.52;97415.31;10528924;28;20044;-74
2023/07/05 08:26:40;;;;;;;4.78;2.70;;;;;;;28.99;33.45;97415.25;10514519;28;20047;-74
2023/07/05 08:32:03;;;;;;;5.32;2.38;;;;;;;29.96;31.53;97409.03;10514451;28;20478;-74
2023/07/05 08:37:24;;;;;;;4.50;2.22;;;;;;;30.57;30.25;97405.91;10500501;28;20044;-74
2023/07/05 08:43:36;;;;;;;2.53;1.70;;;;;;;31.10;29.67;97392.75;10528159;28;20060;-74
2023/07/05 08:49:01;;;;;;;3.35;1.80;;;;;;;31.10;28.75;97386.97;10494267;28;20056;-73
2023/07/05 08:54:22;;;;;;;4.00;1.35;;;;;;;31.60;28.90;97388.13;10513138;28;20448;-73
2023/07/05 08:59:59;;;;;;;5.30;1.50;;;;;;;31.80;27.58;97378.31;10513162;28;20116;-75
2023/07/05 09:06:04;;;;;;;2.40;1.15;;;;;;;31.97;27.55;97376.50;10512663;28;20059;-74
2023/07/05 09:11:41;;;;;;;3.60;1.60;;;;;;;31.00;28.20;97408.06;10530154;28;20194;-72
2023/07/05 09:17:07;;;;;;;8.88;2.35;;;;;;;28.99;31.47;97385.81;10541632;28;20118;-72
2023/07/05 09:22:29;;;;;;;7.78;2.50;;;;;;;27.34;34.91;97393.47;10512955;28;20040;-72
2023/07/05 09:27:56;;;;;;;6.72;2.33;;;;;;;27.84;37.76;97397.53;10512170;28;20490;-71
2023/07/05 09:33:34;;;;;;;4.90;1.55;;;;;;;29.95;37.60;97405.44;10526052;28;20074;-74
2023/07/05 09:39:03;;;;;;;5.18;2.00;;;;;;;31.99;36.23;97401.72;10514138;28;20474;-74
2023/07/05 09:44:24;;;;;;;2.72;1.33;;;;;;;33.84;34.36;97402.59;10497795;28;20036;-74
2023/07/05 09:49:45;;;;;;;4.17;1.47;;;;;;;34.63;33.61;97400.06;10525476;28;20036;-75
2023/07/05 09:55:12;;;;;;;5.90;1.63;;;;;;;34.21;32.26;97421.75;10511114;28;20048;-75
2023/07/05 10:00:36;;;;;;;5.20;1.70;;;;;;;33.44;33.10;97401.63;10540082;28;20048;-75
2023/07/05 10:05:58;;;;;;;4.05;1.30;;;;;;;34.91;31.60;97391.91;10539447;28;20232;-75
2023/07/05 10:11:27;;;;;;;1.42;0.98;;;;;;;35.98;29.23;97390.13;10524837;28;20036;-75
2023/07/05 10:16:53;;;;;;;2.67;1.20;;;;;;;35.65;27.39;97392.84;10539587;28;20040;-75
2023/07/05 10:22:27;;;;;;;1.65;0.90;;;;;;;35.03;26.53;97390.75;10497387;28;20119;-75
2023/07/05 10:27:51;;;;;;;2.13;0.90;;;;;;;35.10;25.62;97386.88;10539714;28;20115;-75
2023/07/05 10:33:25;;;;;;;1.42;0.85;;;;;;;34.78;26.13;97374.22;10511625;28;20044;-75
2023/07/05 10:38:48;;;;;;;2.05;0.85;;;;;;;34.34;26.07;97376.41;10511832;28;20047;-75
2023/07/05 10:44:26;;;;;;;2.67;1.40;;;;;;;34.37;26.03;97377.78;10510435;28;20530;-75
2023/07/05 10:49:49;;;;;;;2.60;1.00;;;;;;;34.14;25.32;97372.69;10497401;28;20097;-76
2023/07/05 10:55:16;;;;;;;3.08;1.45;;;;;;;33.61;25.10;97379.41;10510064;28;20042;-76
2023/07/05 11:00:44;;;;;;;1.63;0.77;;;;;;;32.37;25.42;97374.81;10539071;28;20044;-75
2023/07/05 11:06:05;;;;;;;2.72;0.80;;;;;;;31.94;25.89;97378.00;10523573;28;20474;-75
2023/07/05 11:11:30;;;;;;;2.20;0.77;;;;;;;32.70;26.38;97363.13;10509743;28;20041;-75
2023/07/05 11:16:52;;;;;;;3.78;1.13;;;;;;;32.87;25.67;97356.94;10509748;28;20040;-75
2023/07/05 11:22:49;;;;;;;1.70;1.00;;;;;;;33.20;25.63;97360.34;10530316;28;20040;-75
2023/07/05 11:28:29;;;;;;;1.63;0.90;;;;;;;33.22;25.70;97354.50;10457676;28;20063;-76
2023/07/05 11:34:21;;;;;;;2.42;0.47;;;;;;;32.89;25.10;97359.78;10545901;28;20078;-75
2023/07/05 11:39:50;;;;;;;2.45;0.63;;;;;;;32.02;25.05;97345.34;10530576;28;20048;-75
2023/07/05 11:45:14;;;;;;;1.90;0.47;;;;;;;31.99;25.08;97356.25;10502598;28;20478;-75
2023/07/05 11:50:36;;;;;;;0.38;0.20;;;;;;;31.92;24.67;97351.38;10545122;28;20040;-75
2023/07/05 11:55:56;;;;;;;2.70;0.60;;;;;;;31.83;24.39;97362.38;10515979;28;20556;-75
2023/07/05 12:01:25;;;;;;;1.00;0.30;;;;;;;31.66;24.69;97353.38;10515558;28;20365;-75
2023/07/05 12:06:46;;;;;;;2.88;0.30;;;;;;;32.13;24.84;97344.34;10516024;28;20073;-75
2023/07/05 12:12:11;;;;;;;0.60;0.30;;;;;;;32.05;24.82;97341.66;10515039;28;20055;-75
2023/07/05 12:17:33;;;;;;;0.63;0.30;;;;;;;31.67;24.09;97340.38;10501382;28;20101;-75
2023/07/05 12:22:57;;;;;;;1.00;0.40;;;;;;;31.69;23.72;97342.50;10514780;28;20055;-75
2023/07/05 12:28:22;;;;;;;1.13;0.40;;;;;;;31.76;23.69;97338.75;10514915;28;20043;-75
2023/07/05 12:33:50;;;;;;;1.88;0.47;;;;;;;31.59;23.73;97358.56;10514589;28;20122;-75
2023/07/05 12:39:14;;;;;;;1.10;0.60;;;;;;;31.36;24.63;97366.25;10515014;28;20044;-74
2023/07/05 12:44:35;;;;;;;1.58;0.55;;;;;;;30.38;25.67;97408.38;10514313;28;20044;-74
2023/07/05 12:50:02;;;;;;;5.80;2.13;;;;;;;28.39;27.69;97425.13;10500982;28;20466;-75
2023/07/05 12:55:27;;;;;;;8.57;4.55;;;;;;;26.96;28.74;97431.53;10513529;28;20044;-72
2023/07/05 13:00:50;;;;;;;7.35;5.70;;;;;;;26.21;29.58;97460.84;10513545;28;20048;-72
2023/07/05 13:06:13;;;;;;;12.98;6.00;;;;;;;25.17;31.65;97491.19;10485685;28;20064;-71
2023/07/05 13:11:34;;;;;;;10.38;5.43;;;;;;;24.86;32.88;97495.22;10485153;28;20451;-71
2023/07/05 13:16:57;;;;;;;5.97;4.85;;;;;;;24.52;33.75;97507.81;10484799;28;20075;-71
2023/07/05 13:22:26;;;;;;;5.45;3.80;;;;;;;23.92;35.21;97514.31;10470758;28;20124;-72
2023/07/05 13:27:48;;;;;;;5.38;3.20;;;;;;;23.65;35.98;97519.72;10499273;28;20091;-73
2023/07/05 13:33:11;;;;;;;4.50;3.08;;;;;;;23.62;38.84;97534.59;10470371;28;20121;-73
2023/07/05 13:38:35;;;;;;;6.35;4.03;;;;;;;24.19;38.58;97518.88;10484636;28;20048;-73
2023/07/05 13:43:56;;;;;;;;;;;;;;;25.35;37.16;97497.00;10498595;28;20501;-73
2023/07/05 13:49:17;;;;;;;8.18;5.70;;;;;;;25.81;34.84;97477.94;10483672;28;20286;-73
2023/07/05 13:54:37;;;;;;;7.80;5.15;;;;;;;25.59;34.81;97467.13;10483513;28;20482;-73
2023/07/05 13:59:58;;;;;;;7.32;4.72;;;;;;;25.19;34.69;97461.91;10469491;28;20131;-73
2023/07/05 14:05:18;;;;;;;5.15;4.05;;;;;;;24.75;35.36;97443.78;10534933;28;20524;-73
2023/07/05 14:10:39;;;;;;;8.50;4.07;;;;;;;24.50;35.56;97465.00;10539990;28;20584;-73
2023/07/05 14:16:00;;;;;;;6.55;3.95;;;;;;;24.26;36.12;97468.34;10525056;28;20428;-74
2023/07/05 14:21:32;;;;;;;8.32;4.13;;;;;;;24.04;37.49;97463.16;10510522;28;20123;-73
2023/07/05 14:26:52;;;;;;;6.20;4.00;;;;;;;24.31;37.04;97449.84;10524730;28;20461;-74
2023/07/05 14:32:13;;;;;;;5.38;3.80;;;;;;;24.93;36.60;97443.19;10524253;28;20452;-74
2023/07/05 14:37:34;;;;;;;3.97;2.55;;;;;;;24.73;36.31;97438.06;10524534;28;20073;-73
2023/07/05 14:42:55;;;;;;;4.05;2.72;;;;;;;24.41;36.73;97452.78;10523998;28;20126;-73
2023/07/05 14:48:15;;;;;;;4.38;3.10;;;;;;;24.27;37.50;97439.13;10509991;28;20462;-73
2023/07/05 14:53:37;;;;;;;4.53;2.67;;;;;;;24.38;37.81;97439.94;10497600;28;20047;-73
2023/07/05 14:58:58;;;;;;;4.15;2.38;;;;;;;23.96;37.96;97434.56;10517947;28;20066;-74
2023/07/05 15:04:18;;;;;;;3.33;2.30;;;;;;;23.87;37.66;97424.47;10503787;28;20102;-73
2023/07/05 15:09:39;;;;;;;4.18;2.15;;;;;;;23.68;38.07;97424.28;10531394;28;20474;-73
2023/07/05 15:14:59;;;;;;;4.20;2.20;;;;;;;23.57;37.98;97414.19;10503665;28;20499;-73
2023/07/05 15:20:21;;;;;;;5.22;2.17;;;;;;;23.41;37.59;97413.97;10517249;28;20485;-73
2023/07/05 15:25:42;;;;;;;2.65;1.65;;;;;;;23.24;37.49;97418.03;10531048;28;20044;-74
2023/07/05 15:31:03;;;;;;;3.25;1.98;;;;;;;23.23;38.26;97425.16;10516941;28;20063;-73
2023/07/05 15:36:24;;;;;;;4.05;2.00;;;;;;;23.45;38.28;97425.44;10516732;28;20401;-73
2023/07/05 15:41:44;;;;;;;3.35;2.00;;;;;;;23.46;37.93;97426.88;10502476;28;20067;-73
2023/07/05 15:47:05;;;;;;;3.20;1.88;;;;;;;23.40;38.07;97441.03;10545224;28;20068;-73
2023/07/05 15:52:26;;;;;;;2.28;1.27;;;;;;;23.36;37.36;97441.00;10529972;28;20174;-74
2023/07/05 15:57:47;;;;;;;2.42;1.08;;;;;;;23.54;35.76;97432.63;10529452;28;20043;-73
2023/07/05 16:03:08;;;;;;;3.28;1.13;;;;;;;23.79;35.32;97450.03;10515216;28;20075;-74
2023/07/05 16:08:32;;;;;;;3.33;2.50;;;;;;;24.12;35.66;97451.09;10516066;28;20044;-73
2023/07/05 16:13:53;;;;;;;3.45;1.50;;;;;;;24.18;35.88;97457.56;10529061;28;20044;-73
2023/07/05 16:19:14;;;;;;;2.90;1.50;;;;;;;24.27;36.81;97458.38;10529070;28;20154;-73
2023/07/05 16:24:35;;;;;;;4.70;1.77;;;;;;;24.40;37.48;97474.19;10528787;28;20055;-73
2023/07/05 16:29:56;;;;;;;2.00;1.17;;;;;;;24.46;38.16;97465.69;10514425;28;20051;-73
2023/07/05 16:35:17;;;;;;;2.72;1.63;;;;;;;24.55;38.62;97475.03;10528246;28;20048;-73
2023/07/05 16:40:38;;;;;;;2.38;1.27;;;;;;;24.48;38.79;97479.25;10528091;28;20130;-73
2023/07/05 16:46:01;;;;;;;3.08;1.63;;;;;;;24.36;39.02;97474.16;10527800;28;20490;-74
2023/07/05 16:51:22;;;;;;;2.67;1.65;;;;;;;24.16;39.80;97491.78;10527747;28;20044;-73
2023/07/05 16:56:43;;;;;;;3.00;1.50;;;;;;;23.84;40.79;97494.28;10513584;28;20036;-73
2023/07/05 17:02:04;;;;;;;3.03;1.40;;;;;;;23.82;40.57;97491.38;10542332;28;20056;-73
2023/07/05 17:07:25;;;;;;;4.65;1.80;;;;;;;23.68;41.12;97495.53;10527110;28;20060;-74
2023/07/05 17:12:46;;;;;;;2.53;1.40;;;;;;;23.67;40.81;97499.78;10498922;28;20112;-73
2023/07/05 17:18:07;;;;;;;2.63;1.40;;;;;;;23.53;40.75;97516.66;10540788;28;20078;-74
2023/07/05 17:23:28;;;;;;;2.45;1.15;;;;;;;23.48;40.90;97506.63;10512507;28;20056;-74
2023/07/05 17:28:49;;;;;;;3.70;1.35;;;;;;;23.39;40.38;97530.72;10525901;28;20501;-74
2023/07/05 17:34:10;;;;;;;3.72;1.30;;;;;;;23.25;40.28;97522.69;10498366;28;20507;-73
2023/07/05 17:39:30;;;;;;;3.10;1.25;;;;;;;23.08;40.41;97529.59;10525819;28;20105;-73
2023/07/05 17:44:51;;;;;;;1.80;0.93;;;;;;;22.98;40.01;97535.13;10497912;28;20116;-74
2023/07/05 17:50:12;;;;;;;2.63;1.17;;;;;;;22.81;40.19;97542.66;10525431;28;20502;-74
2023/07/05 17:55:35;;;;;;;4.90;1.15;;;;;;;22.78;40.09;97541.91;10525367;28;20040;-73
2023/07/05 18:00:56;;;;;;;2.20;1.10;;;;;;;22.85;40.17;97539.88;10511189;28;20051;-74
2023/07/05 18:06:19;;;;;;;4.35;1.10;;;;;;;22.76;40.11;97541.13;10525117;28;20478;-74
2023/07/05 18:11:40;;;;;;;2.95;1.20;;;;;;;22.72;39.96;97550.31;10510964;28;20051;-74
2023/07/05 18:17:01;;;;;;;1.95;1.02;;;;;;;22.71;39.80;97548.16;10524579;28;20052;-73
2023/07/05 18:22:22;;;;;;;2.15;1.20;;;;;;;22.66;39.97;97566.56;10539881;28;20119;-73
2023/07/05 18:27:43;;;;;;;2.83;1.10;;;;;;;22.61;39.74;97565.78;10484732;28;20044;-73
2023/07/05 18:33:04;;;;;;;2.28;1.42;;;;;;;22.52;39.88;97582.00;10518999;28;20044;-73
2023/07/05 18:38:27;;;;;;;3.17;1.40;;;;;;;22.42;40.08;97581.81;10519119;28;20113;-74
2023/07/05 18:43:47;;;;;;;3.83;1.20;;;;;;;22.32;40.45;97584.47;10504955;28;20075;-74
2023/07/05 18:49:08;;;;;;;2.60;1.23;;;;;;;22.35;40.25;97594.47;10518422;28;20044;-73
2023/07/05 18:54:29;;;;;;;1.92;1.10;;;;;;;22.34;40.04;97600.84;10532240;28;20048;-74
2023/07/05 18:59:50;;;;;;;3.35;2.28;;;;;;;22.28;40.23;97604.28;10518179;28;20047;-74
2023/07/05 19:05:10;;;;;;;4.22;1.55;;;;;;;22.11;40.10;97599.69;10531517;28;20059;-74
2023/07/05 19:10:31;;;;;;;3.67;1.65;;;;;;;21.90;39.32;97621.25;10531644;28;20071;-72
2023/07/05 19:15:52;;;;;;;5.72;1.80;;;;;;;21.59;39.68;97629.09;10503315;28;20089;-74
2023/07/05 19:21:13;;;;;;;3.72;2.40;;;;;;;21.26;38.99;97641.84;10517177;28;20068;-73
2023/07/05 19:26:34;;;;;;;3.85;2.33;;;;;;;20.95;39.18;97656.66;10517343;28;20064;-74
2023/07/05 19:31:55;;;;;;;6.18;2.53;;;;;;;20.70;39.04;97670.19;10502705;28;20550;-74
2023/07/05 19:37:15;;;;;;;2.58;1.58;;;;;;;20.47;39.10;97673.84;10530710;28;20132;-73
2023/07/05 19:42:36;;;;;;;3.05;2.03;;;;;;;20.30;39.49;97673.34;10515453;28;20127;-73
2023/07/05 19:47:56;;;;;;;4.05;1.80;;;;;;;20.11;39.44;97676.31;10530312;28;20064;-74
2023/07/05 19:53:17;;;;;;;4.15;1.70;;;;;;;19.94;39.30;97692.84;10487825;28;20111;-73
2023/07/05 19:58:38;;;;;;;3.53;1.98;;;;;;;19.73;39.72;97705.66;10529912;28;20089;-73
2023/07/05 20:04:00;;;;;;;4.90;2.80;;;;;;;19.57;39.95;97701.59;10544673;28;20064;-73
2023/07/05 20:09:21;;;;;;;4.15;2.28;;;;;;;19.42;40.02;97715.28;10529097;28;20068;-73
2023/07/05 20:14:42;;;;;;;3.17;1.85;;;;;;;19.26;40.28;97717.56;10515161;28;20120;-74
2023/07/05 20:20:03;;;;;;;4.25;2.13;;;;;;;19.10;40.53;97717.03;10544047;28;20040;-74
2023/07/05 20:25:24;;;;;;;3.75;2.17;;;;;;;19.02;40.98;97734.47;10514756;28;20117;-74
2023/07/05 20:30:56;;;;;;;3.88;2.25;;;;;;;18.93;41.00;97732.72;10514351;28;20139;-73
2023/07/05 20:36:17;;;;;;;2.67;1.93;;;;;;;18.86;41.23;97734.63;10516163;28;20047;-72
2023/07/05 20:41:37;;;;;;;4.75;1.98;;;;;;;18.80;41.19;97736.50;10528225;28;20196;-73
2023/07/05 20:46:58;;;;;;;7.97;2.15;;;;;;;18.71;41.41;97740.41;10513960;28;20443;-74
2023/07/05 20:52:37;;;;;;;3.83;1.95;;;;;;;18.66;41.23;97750.16;10529492;28;20469;-74
2023/07/05 20:57:58;;;;;;;3.65;2.03;;;;;;;18.61;41.31;97754.88;10514019;28;20085;-74
2023/07/05 21:03:19;;;;;;;4.00;2.25;;;;;;;18.54;41.51;97753.97;10513211;28;20075;-74
2023/07/05 21:08:41;;;;;;;5.78;2.15;;;;;;;18.51;41.05;97760.16;10526975;28;20047;-74
2023/07/05 21:14:05;;;;;;;3.58;2.20;;;;;;;18.47;41.03;97763.59;10541783;28;20140;-74
2023/07/05 21:19:26;;;;;;;3.72;2.20;;;;;;;18.45;41.24;97763.50;10512698;28;20448;-74
2023/07/05 21:24:47;;;;;;;4.47;2.22;;;;;;;18.40;40.88;97769.66;10526157;28;20474;-75
2023/07/05 21:30:08;;;;;;;5.15;2.05;;;;;;;18.35;40.78;97773.72;10541231;28;20063;-75
2023/07/05 21:35:29;;;;;;;3.92;2.13;;;;;;;18.28;41.00;97769.94;10526090;28;20463;-75
2023/07/05 21:40:50;;;;;;;4.78;2.20;;;;;;;18.19;40.77;97777.38;10512312;28;20068;-74
2023/07/05 21:46:11;;;;;;;3.50;2.00;;;;;;;18.12;41.00;97791.91;10525823;28;20044;-74
2023/07/05 21:51:35;;;;;;;3.78;2.25;;;;;;;18.03;41.01;97790.84;10540621;28;20064;-74
2023/07/05 21:56:55;;;;;;;4.18;2.28;;;;;;;17.95;41.09;97804.66;10525772;28;20478;-74
2023/07/05 22:02:16;;;;;;;4.80;2.25;;;;;;;17.82;41.20;97802.72;10510803;28;20502;-74
2023/07/05 22:07:37;;;;;;;5.28;2.38;;;;;;;17.72;41.61;97805.88;10511110;28;20036;-74
2023/07/05 22:12:58;;;;;;;4.50;2.28;;;;;;;17.61;41.77;97815.28;10539867;28;20135;-74
2023/07/05 22:18:20;;;;;;;5.50;2.35;;;;;;;17.50;42.28;97819.06;10524845;28;20106;-74
2023/07/05 22:23:41;;;;;;;6.03;2.15;;;;;;;17.36;42.43;97828.34;10539948;28;20079;-74
2023/07/05 22:29:02;;;;;;;4.57;2.50;;;;;;;17.25;42.86;97840.59;10524623;28;20048;-75
2023/07/05 22:34:23;;;;;;;3.92;1.95;;;;;;;17.14;42.85;97833.06;10524826;28;20063;-74
2023/07/05 22:39:44;;;;;;;5.10;2.08;;;;;;;17.07;43.05;97839.78;10496540;28;20191;-74
2023/07/05 22:45:05;;;;;;;3.60;2.25;;;;;;;17.01;43.12;97843.09;10510393;28;20059;-74
2023/07/05 22:50:26;;;;;;;4.07;2.22;;;;;;;16.91;43.76;97842.66;10510336;28;20539;-74
2023/07/05 22:55:47;;;;;;;3.63;2.05;;;;;;;16.87;43.63;97842.44;10510377;28;20115;-74
2023/07/05 23:01:08;;;;;;;2.97;1.92;;;;;;;16.80;43.97;97847.09;10539909;28;20150;-74
2023/07/05 23:06:28;;;;;;;5.93;2.30;;;;;;;16.72;44.51;97854.47;10510973;28;20071;-74
2023/07/05 23:11:49;;;;;;;4.20;1.80;;;;;;;16.63;44.51;97849.78;10510781;28;20136;-75
2023/07/05 23:17:09;;;;;;;3.88;2.00;;;;;;;16.56;44.75;97852.31;10529462;28;20121;-74
2023/07/05 23:22:30;;;;;;;4.38;1.50;;;;;;;16.52;44.94;97851.44;10521424;28;20077;-75
2023/07/05 23:27:51;;;;;;;3.72;1.95;;;;;;;16.47;44.83;97866.69;10520626;28;20067;-73
2023/07/05 23:33:11;;;;;;;3.10;1.90;;;;;;;16.45;45.19;97864.50;10517013;28;20128;-74
2023/07/05 23:38:32;;;;;;;3.65;1.60;;;;;;;16.36;45.20;97864.75;10516738;28;20068;-73
2023/07/05 23:43:54;;;;;;;4.40;1.83;;;;;;;16.24;45.54;97862.81;10516848;28;20048;-73
2023/07/05 23:49:14;;;;;;;4.07;1.77;;;;;;;16.18;45.60;97873.78;10516353;28;20064;-74
2023/07/05 23:54:35;;;;;;;4.60;1.90;;;;;;;16.13;45.63;97879.88;10502343;28;20068;-73
2023/07/05 23:59:56;;;;;;;3.80;1.83;;;;;;;16.02;45.78;97870.22;10529861;28;20068;-73
